createdAt,value
2019-01-13T00:01:02.968Z,80.74
2019-01-13T00:02:07.735Z,80.60
2019-01-13T00:03:12.520Z,80.72
2019-01-13T00:04:17.341Z,80.47
2019-01-13T00:05:22.559Z,80.66
2019-01-13T00:06:27.327Z,80.99
2019-01-13T00:07:32.516Z,80.74
2019-01-13T00:08:37.375Z,80.68
2019-01-13T00:09:41.895Z,80.90
2019-01-13T00:10:46.405Z,80.80
2019-01-13T00:11:51.198Z,80.62
2019-01-13T00:12:56.325Z,80.54
2019-01-13T00:14:01.566Z,80.53
2019-01-13T00:15:07.129Z,80.50
2019-01-13T00:16:12.550Z,80.68
2019-01-13T00:17:17.312Z,80.69
2019-01-13T00:18:22.131Z,80.67
2019-01-13T00:19:26.908Z,80.73
2019-01-13T00:20:31.724Z,80.73
2019-01-13T00:21:36.591Z,80.52
2019-01-13T00:22:41.368Z,80.55
2019-01-13T00:23:47.002Z,80.51
2019-01-13T00:24:51.804Z,80.62
2019-01-13T00:25:56.311Z,80.93
2019-01-13T00:27:01.530Z,80.77
2019-01-13T00:28:06.655Z,80.59
2019-01-13T00:29:11.473Z,80.51
2019-01-13T00:30:19.463Z,80.52
2019-01-13T00:31:22.565Z,80.54
2019-01-13T00:32:27.709Z,80.67
2019-01-13T00:33:32.851Z,80.44
2019-01-13T00:34:38.002Z,80.62
2019-01-13T00:35:42.761Z,81.00
2019-01-13T00:36:47.779Z,81.05
2019-01-13T00:37:52.261Z,81.05
2019-01-13T00:38:57.027Z,80.78
2019-01-13T00:40:01.857Z,81.21
2019-01-13T00:41:07.415Z,81.16
2019-01-13T00:42:12.527Z,81.29
2019-01-13T00:43:17.335Z,81.24
2019-01-13T00:44:22.547Z,81.10
2019-01-13T00:45:28.046Z,81.18
2019-01-13T00:46:33.202Z,81.14
2019-01-13T00:47:37.984Z,80.87
2019-01-13T00:48:42.752Z,81.01
2019-01-13T00:49:47.231Z,80.77
2019-01-13T00:50:52.355Z,80.69
2019-01-13T00:51:57.446Z,80.75
2019-01-13T00:53:02.354Z,80.91
2019-01-13T00:54:07.550Z,80.95
2019-01-13T00:55:13.026Z,80.97
2019-01-13T00:56:18.124Z,80.98
2019-01-13T00:57:22.615Z,80.87
2019-01-13T00:58:27.820Z,81.00
2019-01-13T00:59:32.587Z,80.62
2019-01-13T01:00:38.510Z,80.68
2019-01-13T01:01:43.136Z,80.74
2019-01-13T01:02:48.056Z,80.86
2019-01-13T01:03:53.179Z,80.91
2019-01-13T01:04:58.321Z,80.78
2019-01-13T01:06:04.126Z,80.85
2019-01-13T01:07:08.902Z,80.96
2019-01-13T01:08:13.982Z,80.86
2019-01-13T01:09:19.151Z,80.66
2019-01-13T01:10:23.753Z,80.58
2019-01-13T01:11:29.322Z,80.81
2019-01-13T01:12:34.182Z,80.61
2019-01-13T01:13:38.909Z,80.61
2019-01-13T01:14:43.722Z,80.57
2019-01-13T01:15:48.461Z,80.67
2019-01-13T01:16:53.559Z,80.77
2019-01-13T01:17:58.325Z,80.49
2019-01-13T01:19:04.707Z,80.58
2019-01-13T01:20:11.249Z,80.60
2019-01-13T01:21:16.688Z,80.67
2019-01-13T01:22:21.498Z,80.84
2019-01-13T01:23:26.611Z,80.87
2019-01-13T01:24:31.464Z,80.82
2019-01-13T01:25:36.621Z,80.85
2019-01-13T01:26:41.760Z,80.84
2019-01-13T01:27:46.525Z,80.90
2019-01-13T01:28:51.728Z,80.83
2019-01-13T01:29:56.866Z,80.67
2019-01-13T01:31:02.162Z,80.68
2019-01-13T01:32:07.678Z,80.67
2019-01-13T01:33:13.222Z,80.62
2019-01-13T01:34:18.052Z,80.55
2019-01-13T01:35:22.816Z,80.64
2019-01-13T01:36:28.099Z,80.84
2019-01-13T01:37:33.156Z,80.86
2019-01-13T01:38:38.282Z,80.94
2019-01-13T01:39:43.047Z,80.87
2019-01-13T01:40:47.858Z,80.90
2019-01-13T01:41:52.640Z,80.88
2019-01-13T01:42:57.417Z,80.93
2019-01-13T01:44:02.560Z,80.72
2019-01-13T01:45:09.424Z,80.78
2019-01-13T01:46:14.222Z,80.82
2019-01-13T01:47:19.208Z,80.87
2019-01-13T01:48:24.108Z,80.79
2019-01-13T01:49:28.900Z,80.82
2019-01-13T01:50:33.654Z,80.51
2019-01-13T01:51:38.781Z,80.73
2019-01-13T01:52:43.598Z,80.74
2019-01-13T01:53:48.700Z,80.61
2019-01-13T01:54:54.352Z,80.75
2019-01-13T01:55:59.133Z,80.74
2019-01-13T01:57:03.638Z,80.75
2019-01-13T01:58:08.410Z,80.71
2019-01-13T01:59:13.184Z,80.82
2019-01-13T02:00:23.444Z,80.85
2019-01-13T02:01:28.285Z,80.84
2019-01-13T02:02:33.088Z,80.99
2019-01-13T02:03:38.701Z,80.90
2019-01-13T02:04:43.747Z,80.89
2019-01-13T02:05:48.824Z,80.85
2019-01-13T02:06:53.928Z,80.79
2019-01-13T02:07:58.772Z,80.72
2019-01-13T02:09:05.202Z,80.79
2019-01-13T02:10:13.118Z,80.64
2019-01-13T02:11:18.314Z,80.73
2019-01-13T02:12:23.839Z,80.71
2019-01-13T02:13:29.447Z,80.75
2019-01-13T02:14:34.902Z,80.92
2019-01-13T02:15:40.460Z,80.99
2019-01-13T02:16:45.535Z,81.27
2019-01-13T02:17:50.026Z,81.37
2019-01-13T02:18:54.542Z,81.81
2019-01-13T02:19:59.602Z,82.14
2019-01-13T02:21:04.361Z,82.38
2019-01-13T02:22:09.125Z,82.44
2019-01-13T02:23:14.304Z,82.38
2019-01-13T02:24:19.524Z,82.43
2019-01-13T02:25:26.640Z,82.54
2019-01-13T02:26:31.813Z,82.66
2019-01-13T02:27:36.622Z,82.73
2019-01-13T02:28:41.105Z,82.83
2019-01-13T02:29:46.843Z,82.82
2019-01-13T02:30:52.045Z,82.78
2019-01-13T02:31:56.551Z,82.87
2019-01-13T02:33:01.655Z,83.07
2019-01-13T02:34:07.184Z,83.13
2019-01-13T02:35:12.360Z,83.09
2019-01-13T02:36:17.119Z,82.96
2019-01-13T02:37:21.918Z,83.12
2019-01-13T02:38:27.525Z,83.09
2019-01-13T02:39:32.413Z,83.16
2019-01-13T02:40:37.108Z,83.10
2019-01-13T02:41:41.883Z,83.19
2019-01-13T02:42:46.652Z,83.29
2019-01-13T02:43:51.719Z,83.27
2019-01-13T02:44:56.239Z,83.38
2019-01-13T02:46:01.027Z,83.45
2019-01-13T02:47:06.129Z,83.52
2019-01-13T02:48:11.920Z,83.46
2019-01-13T02:49:16.977Z,83.52
2019-01-13T02:50:22.070Z,83.76
2019-01-13T02:51:28.314Z,83.75
2019-01-13T02:52:33.541Z,83.88
2019-01-13T02:53:39.098Z,83.82
2019-01-13T02:54:44.008Z,83.83
2019-01-13T02:55:49.231Z,84.14
2019-01-13T02:56:54.380Z,84.10
2019-01-13T02:57:59.415Z,84.05
2019-01-13T02:59:04.604Z,83.96
2019-01-13T03:00:13.230Z,83.90
2019-01-13T03:01:18.786Z,84.02
2019-01-13T03:02:23.903Z,84.08
2019-01-13T03:03:29.154Z,84.08
2019-01-13T03:04:34.734Z,84.15
2019-01-13T03:05:41.797Z,84.25
2019-01-13T03:06:46.964Z,84.25
2019-01-13T03:07:52.019Z,84.07
2019-01-13T03:08:56.889Z,84.05
2019-01-13T03:10:02.018Z,84.00
2019-01-13T03:11:06.781Z,83.98
2019-01-13T03:12:11.315Z,83.99
2019-01-13T03:13:16.065Z,83.82
2019-01-13T03:14:20.850Z,83.72
2019-01-13T03:15:28.114Z,83.66
2019-01-13T03:16:32.603Z,83.76
2019-01-13T03:17:37.439Z,83.81
2019-01-13T03:18:42.961Z,84.04
2019-01-13T03:19:48.031Z,83.89
2019-01-13T03:20:53.081Z,83.79
2019-01-13T03:21:58.214Z,83.76
2019-01-13T03:23:02.987Z,83.75
2019-01-13T03:24:08.073Z,83.86
2019-01-13T03:25:14.971Z,83.99
2019-01-13T03:26:20.177Z,84.21
2019-01-13T03:27:25.277Z,84.11
2019-01-13T03:28:30.455Z,84.28
2019-01-13T03:29:35.644Z,84.13
2019-01-13T03:30:40.354Z,83.99
2019-01-13T03:31:45.114Z,84.05
2019-01-13T03:32:50.253Z,84.04
2019-01-13T03:33:55.089Z,84.15
2019-01-13T03:35:00.239Z,84.24
2019-01-13T03:36:05.501Z,84.34
2019-01-13T03:37:09.981Z,84.16
2019-01-13T03:38:14.779Z,84.03
2019-01-13T03:39:19.636Z,84.16
2019-01-13T03:40:25.819Z,84.11
2019-01-13T03:41:30.608Z,83.96
2019-01-13T03:42:36.104Z,83.93
2019-01-13T03:43:40.910Z,83.86
2019-01-13T03:44:46.207Z,83.99
2019-01-13T03:45:50.996Z,83.95
2019-01-13T03:46:55.847Z,84.04
2019-01-13T03:48:01.052Z,84.07
2019-01-13T03:49:05.822Z,84.11
2019-01-13T03:50:13.152Z,83.91
2019-01-13T03:51:18.250Z,84.03
2019-01-13T03:52:23.932Z,83.86
2019-01-13T03:53:28.783Z,84.19
2019-01-13T03:54:34.333Z,84.09
2019-01-13T03:55:39.000Z,84.16
2019-01-13T03:56:43.768Z,83.99
2019-01-13T03:57:49.222Z,84.07
2019-01-13T03:58:54.321Z,83.86
2019-01-13T03:59:59.086Z,83.75
2019-01-13T04:01:04.226Z,83.79
2019-01-13T04:02:09.462Z,83.68
2019-01-13T04:03:14.881Z,83.55
2019-01-13T04:04:20.023Z,83.54
2019-01-13T04:05:25.168Z,83.55
2019-01-13T04:06:30.464Z,83.54
2019-01-13T04:07:35.585Z,83.44
2019-01-13T04:08:40.684Z,83.43
2019-01-13T04:09:45.574Z,83.41
2019-01-13T04:10:50.059Z,83.24
2019-01-13T04:11:55.171Z,83.27
2019-01-13T04:13:00.252Z,83.32
2019-01-13T04:14:05.384Z,83.41
2019-01-13T04:15:44.931Z,83.25
2019-01-13T04:16:49.712Z,83.45
2019-01-13T04:17:55.214Z,83.57
2019-01-13T04:19:00.771Z,83.67
2019-01-13T04:20:06.047Z,83.79
2019-01-13T04:21:10.569Z,83.99
2019-01-13T04:22:16.160Z,83.97
2019-01-13T04:23:21.604Z,83.78
2019-01-13T04:24:26.706Z,83.93
2019-01-13T04:25:31.795Z,83.83
2019-01-13T04:26:37.647Z,83.77
2019-01-13T04:27:42.446Z,83.78
2019-01-13T04:28:46.939Z,83.86
2019-01-13T04:29:52.109Z,83.96
2019-01-13T04:30:57.709Z,83.96
2019-01-13T04:32:03.560Z,83.84
2019-01-13T04:33:08.081Z,83.82
2019-01-13T04:34:13.167Z,83.80
2019-01-13T04:35:18.329Z,83.75
2019-01-13T04:36:23.102Z,83.75
2019-01-13T04:37:27.879Z,83.72
2019-01-13T04:38:32.796Z,83.69
2019-01-13T04:39:39.633Z,83.72
2019-01-13T04:40:45.012Z,83.79
2019-01-13T04:41:50.189Z,83.75
2019-01-13T04:42:55.289Z,83.71
2019-01-13T04:44:00.397Z,83.70
2019-01-13T04:45:05.589Z,83.82
2019-01-13T04:46:10.778Z,84.00
2019-01-13T04:47:16.334Z,83.84
2019-01-13T04:48:21.896Z,83.97
2019-01-13T04:49:27.035Z,83.93
2019-01-13T04:50:32.662Z,83.89
2019-01-13T04:51:40.704Z,83.89
2019-01-13T04:52:45.467Z,83.88
2019-01-13T04:53:51.122Z,83.76
2019-01-13T04:54:56.047Z,83.67
2019-01-13T04:56:00.546Z,83.67
2019-01-13T04:57:05.445Z,83.65
2019-01-13T04:58:10.239Z,83.45
2019-01-13T04:59:15.580Z,83.51
2019-01-13T05:00:20.821Z,83.70
2019-01-13T05:01:25.594Z,83.71
2019-01-13T05:02:30.342Z,83.55
2019-01-13T05:03:35.887Z,83.50
2019-01-13T05:04:41.403Z,83.51
2019-01-13T05:05:46.915Z,83.49
2019-01-13T05:06:52.042Z,83.47
2019-01-13T05:07:56.815Z,83.54
2019-01-13T05:09:02.514Z,83.64
2019-01-13T05:10:09.366Z,83.52
2019-01-13T05:11:14.844Z,83.57
2019-01-13T05:12:20.257Z,83.56
2019-01-13T05:13:25.354Z,83.58
2019-01-13T05:14:30.858Z,83.69
2019-01-13T05:15:35.737Z,83.75
2019-01-13T05:16:40.854Z,83.80
2019-01-13T05:17:45.999Z,83.83
2019-01-13T05:18:50.750Z,83.78
2019-01-13T05:19:55.870Z,83.80
2019-01-13T05:21:00.693Z,83.87
2019-01-13T05:22:05.798Z,83.94
2019-01-13T05:23:10.911Z,83.82
2019-01-13T05:24:15.751Z,83.72
2019-01-13T05:25:20.270Z,83.76
2019-01-13T05:26:25.113Z,83.74
2019-01-13T05:27:29.982Z,83.78
2019-01-13T05:28:35.426Z,83.76
2019-01-13T05:29:40.538Z,83.91
2019-01-13T05:30:46.011Z,83.97
2019-01-13T05:31:51.105Z,83.91
2019-01-13T05:32:56.579Z,84.05
2019-01-13T05:34:01.323Z,83.96
2019-01-13T05:35:06.122Z,84.02
2019-01-13T05:36:11.712Z,83.88
2019-01-13T05:37:16.864Z,83.94
2019-01-13T05:38:21.393Z,83.86
2019-01-13T05:39:26.895Z,83.77
2019-01-13T05:40:31.391Z,83.81
2019-01-13T05:41:36.482Z,83.94
2019-01-13T05:42:41.366Z,83.75
2019-01-13T05:43:46.709Z,83.75
2019-01-13T05:44:51.780Z,83.74
2019-01-13T05:45:57.627Z,83.79
2019-01-13T05:47:02.953Z,83.78
2019-01-13T05:48:07.720Z,83.83
2019-01-13T05:49:12.471Z,85.00
2019-01-13T05:50:18.637Z,84.53
2019-01-13T05:51:24.633Z,84.17
2019-01-13T05:52:29.430Z,83.97
2019-01-13T05:53:33.953Z,84.00
2019-01-13T05:54:39.062Z,84.05
2019-01-13T05:55:44.315Z,84.08
2019-01-13T05:56:49.870Z,83.96
2019-01-13T05:57:54.707Z,84.06
2019-01-13T05:59:00.621Z,84.15
2019-01-13T06:00:06.075Z,84.33
2019-01-13T06:01:11.430Z,84.37
2019-01-13T06:02:16.550Z,84.46
2019-01-13T06:03:21.669Z,84.46
2019-01-13T06:04:26.789Z,84.56
2019-01-13T06:05:31.574Z,84.71
2019-01-13T06:06:36.944Z,84.81
2019-01-13T06:07:41.723Z,84.85
2019-01-13T06:08:47.301Z,84.79
2019-01-13T06:09:51.786Z,84.76
2019-01-13T06:10:56.926Z,84.80
2019-01-13T06:12:02.564Z,84.74
2019-01-13T06:13:07.666Z,84.71
2019-01-13T06:14:12.486Z,84.58
2019-01-13T06:15:19.324Z,84.72
2019-01-13T06:16:24.480Z,84.74
2019-01-13T06:17:30.342Z,84.81
2019-01-13T06:18:35.136Z,84.90
2019-01-13T06:19:39.732Z,84.88
2019-01-13T06:20:44.882Z,84.97
2019-01-13T06:21:49.638Z,84.96
2019-01-13T06:22:54.724Z,85.02
2019-01-13T06:23:59.489Z,84.92
2019-01-13T06:25:04.262Z,84.94
2019-01-13T06:26:09.425Z,85.04
2019-01-13T06:27:14.613Z,85.06
2019-01-13T06:28:20.109Z,85.22
2019-01-13T06:29:25.274Z,85.21
2019-01-13T06:30:30.456Z,85.13
2019-01-13T06:31:35.602Z,85.14
2019-01-13T06:32:40.492Z,85.21
2019-01-13T06:33:45.260Z,85.29
2019-01-13T06:34:50.478Z,85.36
2019-01-13T06:35:55.639Z,85.31
2019-01-13T06:37:00.730Z,85.24
2019-01-13T06:38:06.326Z,85.30
2019-01-13T06:39:11.806Z,85.37
2019-01-13T06:40:18.203Z,85.42
2019-01-13T06:41:22.693Z,85.54
2019-01-13T06:42:29.053Z,85.53
2019-01-13T06:43:33.836Z,85.36
2019-01-13T06:44:38.977Z,85.46
2019-01-13T06:45:43.793Z,85.42
2019-01-13T06:46:49.288Z,85.40
2019-01-13T06:47:54.119Z,85.44
2019-01-13T06:49:00.279Z,85.29
2019-01-13T06:50:05.625Z,85.28
2019-01-13T06:51:10.405Z,85.36
2019-01-13T06:52:15.608Z,85.44
2019-01-13T06:53:20.080Z,85.43
2019-01-13T06:54:24.916Z,85.40
2019-01-13T06:55:30.219Z,85.41
2019-01-13T06:56:35.745Z,85.30
2019-01-13T06:57:40.967Z,85.33
2019-01-13T06:58:46.026Z,85.39
2019-01-13T06:59:50.505Z,85.39
2019-01-13T07:00:55.302Z,85.46
2019-01-13T07:02:03.526Z,85.34
2019-01-13T07:03:06.578Z,85.50
2019-01-13T07:04:11.693Z,85.41
2019-01-13T07:05:17.193Z,85.47
2019-01-13T07:06:22.381Z,85.51
2019-01-13T07:07:27.517Z,85.50
2019-01-13T07:08:32.266Z,85.45
2019-01-13T07:09:37.551Z,85.45
2019-01-13T07:10:42.378Z,85.48
2019-01-13T07:11:47.215Z,85.54
2019-01-13T07:12:52.839Z,85.58
2019-01-13T07:13:57.428Z,85.56
2019-01-13T07:15:02.603Z,85.58
2019-01-13T07:16:07.345Z,85.46
2019-01-13T07:17:11.973Z,85.49
2019-01-13T07:18:17.449Z,85.45
2019-01-13T07:19:22.259Z,85.39
2019-01-13T07:20:27.004Z,85.36
2019-01-13T07:21:31.760Z,85.46
2019-01-13T07:22:37.292Z,85.49
2019-01-13T07:23:42.462Z,85.61
2019-01-13T07:24:47.939Z,85.52
2019-01-13T07:25:52.726Z,85.51
2019-01-13T07:26:57.198Z,85.54
2019-01-13T07:28:01.701Z,85.50
2019-01-13T07:29:06.187Z,85.46
2019-01-13T07:30:17.589Z,85.36
2019-01-13T07:31:22.787Z,85.43
2019-01-13T07:32:28.100Z,85.31
2019-01-13T07:33:33.165Z,85.35
2019-01-13T07:34:37.949Z,85.35
2019-01-13T07:35:42.438Z,85.39
2019-01-13T07:36:47.206Z,85.37
2019-01-13T07:37:51.988Z,85.46
2019-01-13T07:38:56.938Z,85.57
2019-01-13T07:40:01.465Z,85.74
2019-01-13T07:41:06.371Z,85.75
2019-01-13T07:42:10.840Z,85.70
2019-01-13T07:43:16.293Z,85.46
2019-01-13T07:44:21.408Z,85.49
2019-01-13T07:45:27.754Z,85.45
2019-01-13T07:46:32.853Z,85.38
2019-01-13T07:47:37.934Z,85.43
2019-01-13T07:48:42.695Z,85.49
2019-01-13T07:49:47.447Z,85.54
2019-01-13T07:50:51.954Z,85.55
2019-01-13T07:51:57.034Z,85.56
2019-01-13T07:53:01.822Z,85.67
2019-01-13T07:54:06.690Z,85.70
2019-01-13T07:55:14.118Z,85.70
2019-01-13T07:56:19.195Z,85.69
2019-01-13T07:57:24.321Z,85.49
2019-01-13T07:58:30.168Z,85.48
2019-01-13T07:59:35.273Z,85.51
2019-01-13T08:00:40.126Z,85.50
2019-01-13T08:01:44.863Z,85.54
2019-01-13T08:02:49.648Z,85.54
2019-01-13T08:03:54.128Z,85.67
2019-01-13T08:04:58.622Z,85.60
2019-01-13T08:06:03.703Z,85.58
2019-01-13T08:07:08.630Z,85.63
2019-01-13T08:08:13.823Z,85.63
2019-01-13T08:09:19.236Z,85.63
2019-01-13T08:10:24.396Z,85.61
2019-01-13T08:11:29.754Z,85.60
2019-01-13T08:12:34.556Z,85.71
2019-01-13T08:13:41.573Z,85.68
2019-01-13T08:14:46.839Z,85.69
2019-01-13T08:15:52.049Z,85.68
2019-01-13T08:16:57.124Z,85.50
2019-01-13T08:18:02.158Z,85.58
2019-01-13T08:19:06.650Z,85.53
2019-01-13T08:20:14.649Z,85.49
2019-01-13T08:21:19.755Z,85.55
2019-01-13T08:22:25.245Z,85.53
2019-01-13T08:23:30.293Z,85.67
2019-01-13T08:24:35.513Z,85.77
2019-01-13T08:25:40.631Z,85.58
2019-01-13T08:26:45.710Z,85.56
2019-01-13T08:27:50.885Z,85.64
2019-01-13T08:28:55.682Z,85.77
2019-01-13T08:30:00.550Z,85.68
2019-01-13T08:31:06.085Z,85.61
2019-01-13T08:32:11.139Z,85.66
2019-01-13T08:33:16.281Z,85.59
2019-01-13T08:34:21.030Z,85.63
2019-01-13T08:35:25.806Z,85.67
2019-01-13T08:36:30.904Z,85.65
2019-01-13T08:37:36.028Z,85.72
2019-01-13T08:38:41.184Z,85.80
2019-01-13T08:39:46.744Z,85.87
2019-01-13T08:40:51.929Z,85.87
2019-01-13T08:41:57.557Z,85.90
2019-01-13T08:43:02.359Z,85.89
2019-01-13T08:44:07.384Z,85.86
2019-01-13T08:45:12.337Z,85.74
2019-01-13T08:46:17.136Z,85.83
2019-01-13T08:47:22.199Z,85.83
2019-01-13T08:48:26.671Z,85.83
2019-01-13T08:49:31.808Z,85.78
2019-01-13T08:50:36.240Z,85.76
2019-01-13T08:51:41.033Z,85.72
2019-01-13T08:52:46.178Z,85.78
2019-01-13T08:53:51.803Z,85.69
2019-01-13T08:54:56.847Z,85.79
2019-01-13T08:56:01.941Z,85.76
2019-01-13T08:57:06.713Z,85.76
2019-01-13T08:58:11.832Z,85.71
2019-01-13T08:59:17.071Z,85.78
2019-01-13T09:00:24.358Z,85.79
2019-01-13T09:01:29.105Z,85.78
2019-01-13T09:02:33.890Z,85.72
2019-01-13T09:03:39.945Z,85.69
2019-01-13T09:04:45.087Z,85.63
2019-01-13T09:05:49.833Z,85.67
2019-01-13T09:06:54.595Z,85.65
2019-01-13T09:07:59.109Z,85.89
2019-01-13T09:09:08.813Z,85.82
2019-01-13T09:10:14.905Z,85.93
2019-01-13T09:11:19.654Z,85.89
2019-01-13T09:12:24.149Z,85.99
2019-01-13T09:13:29.350Z,86.07
2019-01-13T09:14:33.844Z,86.18
2019-01-13T09:15:38.638Z,86.18
2019-01-13T09:16:43.383Z,86.12
2019-01-13T09:17:48.153Z,86.13
2019-01-13T09:18:52.987Z,86.15
2019-01-13T09:19:58.043Z,86.17
2019-01-13T09:21:02.527Z,86.19
2019-01-13T09:22:07.633Z,86.16
2019-01-13T09:23:12.434Z,86.12
2019-01-13T09:24:16.957Z,85.94
2019-01-13T09:25:22.033Z,85.99
2019-01-13T09:26:27.077Z,86.10
2019-01-13T09:27:31.840Z,86.02
2019-01-13T09:28:38.842Z,86.03
2019-01-13T09:29:43.646Z,85.93
2019-01-13T09:30:48.747Z,85.93
2019-01-13T09:31:53.506Z,85.91
2019-01-13T09:32:58.284Z,85.94
2019-01-13T09:34:03.345Z,85.95
2019-01-13T09:35:08.686Z,85.82
2019-01-13T09:36:13.422Z,85.78
2019-01-13T09:37:18.313Z,85.85
2019-01-13T09:38:23.112Z,85.90
2019-01-13T09:39:27.856Z,85.85
2019-01-13T09:40:33.400Z,85.80
2019-01-13T09:41:38.733Z,85.85
2019-01-13T09:42:43.918Z,85.93
2019-01-13T09:43:48.678Z,85.86
2019-01-13T09:44:53.750Z,85.72
2019-01-13T09:45:58.263Z,85.66
2019-01-13T09:47:03.025Z,85.74
2019-01-13T09:48:07.519Z,85.77
2019-01-13T09:49:12.610Z,86.02
2019-01-13T09:50:18.825Z,86.01
2019-01-13T09:51:23.640Z,85.60
2019-01-13T09:52:28.409Z,85.58
2019-01-13T09:53:33.193Z,85.49
2019-01-13T09:54:38.440Z,85.51
2019-01-13T09:55:43.285Z,85.66
2019-01-13T09:56:48.043Z,85.71
2019-01-13T09:57:53.150Z,85.71
2019-01-13T09:58:57.956Z,85.63
2019-01-13T10:00:02.712Z,85.67
2019-01-13T10:01:07.845Z,85.60
2019-01-13T10:02:13.801Z,85.72
2019-01-13T10:03:19.335Z,85.73
2019-01-13T10:04:24.927Z,85.74
2019-01-13T10:05:29.712Z,85.72
2019-01-13T10:06:34.502Z,85.79
2019-01-13T10:07:39.935Z,85.81
2019-01-13T10:08:45.269Z,85.67
2019-01-13T10:09:50.332Z,85.61
2019-01-13T10:10:55.121Z,85.57
2019-01-13T10:11:59.977Z,85.53
2019-01-13T10:13:04.763Z,85.56
2019-01-13T10:14:09.577Z,85.59
2019-01-13T10:15:16.679Z,85.46
2019-01-13T10:16:21.448Z,85.55
2019-01-13T10:17:26.377Z,85.49
2019-01-13T10:18:31.163Z,85.64
2019-01-13T10:19:35.939Z,85.80
2019-01-13T10:20:41.055Z,85.73
2019-01-13T10:21:46.106Z,85.71
2019-01-13T10:22:50.922Z,85.68
2019-01-13T10:23:56.389Z,85.68
2019-01-13T10:25:00.889Z,85.74
2019-01-13T10:26:06.116Z,85.81
2019-01-13T10:27:10.908Z,85.83
2019-01-13T10:28:15.667Z,85.86
2019-01-13T10:29:20.422Z,85.96
2019-01-13T10:30:27.729Z,86.00
2019-01-13T10:31:32.480Z,85.85
2019-01-13T10:32:37.458Z,85.91
2019-01-13T10:33:42.234Z,85.79
2019-01-13T10:34:46.988Z,85.74
2019-01-13T10:35:51.485Z,85.80
2019-01-13T10:36:56.258Z,85.59
2019-01-13T10:38:01.431Z,85.56
2019-01-13T10:39:08.986Z,85.53
2019-01-13T10:40:16.446Z,85.55
2019-01-13T10:41:21.209Z,85.44
2019-01-13T10:42:25.960Z,85.54
2019-01-13T10:43:31.297Z,85.47
2019-01-13T10:44:36.079Z,85.40
2019-01-13T10:45:40.860Z,85.42
2019-01-13T10:46:46.032Z,85.42
2019-01-13T10:47:51.398Z,85.43
2019-01-13T10:48:56.615Z,85.54
2019-01-13T10:50:01.385Z,85.56
2019-01-13T10:51:06.465Z,85.35
2019-01-13T10:52:11.527Z,85.34
2019-01-13T10:53:16.698Z,85.32
2019-01-13T10:54:22.356Z,85.32
2019-01-13T10:55:27.108Z,85.41
2019-01-13T10:56:32.213Z,85.44
2019-01-13T10:57:36.981Z,85.41
2019-01-13T10:58:41.491Z,85.25
2019-01-13T10:59:46.583Z,85.16
2019-01-13T11:00:51.657Z,85.22
2019-01-13T11:01:57.167Z,85.22
2019-01-13T11:03:02.680Z,85.18
2019-01-13T11:04:07.935Z,85.23
2019-01-13T11:05:13.190Z,85.04
2019-01-13T11:06:17.968Z,85.13
2019-01-13T11:07:22.454Z,85.29
2019-01-13T11:08:27.285Z,85.33
2019-01-13T11:09:32.473Z,85.43
2019-01-13T11:10:37.396Z,85.27
2019-01-13T11:11:42.176Z,85.17
2019-01-13T11:12:46.664Z,85.12
2019-01-13T11:13:51.568Z,85.10
2019-01-13T11:14:57.026Z,85.04
2019-01-13T11:16:01.849Z,84.93
2019-01-13T11:17:07.256Z,84.81
2019-01-13T11:18:12.892Z,84.72
2019-01-13T11:19:19.330Z,84.66
2019-01-13T11:20:29.427Z,84.45
2019-01-13T11:21:34.642Z,84.41
2019-01-13T11:22:40.058Z,84.40
2019-01-13T11:23:44.887Z,84.51
2019-01-13T11:24:50.432Z,84.26
2019-01-13T11:25:55.618Z,84.39
2019-01-13T11:27:00.710Z,84.48
2019-01-13T11:28:10.341Z,84.41
2019-01-13T11:29:15.103Z,84.36
2019-01-13T11:30:21.431Z,84.48
2019-01-13T11:31:26.937Z,84.41
2019-01-13T11:32:33.555Z,84.43
2019-01-13T11:33:38.516Z,84.32
2019-01-13T11:34:43.509Z,84.27
2019-01-13T11:35:48.833Z,84.43
2019-01-13T11:36:53.318Z,84.49
2019-01-13T11:37:58.131Z,84.34
2019-01-13T11:39:03.777Z,84.33
2019-01-13T11:40:16.341Z,84.42
2019-01-13T11:41:21.349Z,84.59
2019-01-13T11:42:25.831Z,84.81
2019-01-13T11:43:30.616Z,84.68
2019-01-13T11:44:35.817Z,84.72
2019-01-13T11:45:40.726Z,84.79
2019-01-13T11:46:45.505Z,84.57
2019-01-13T11:47:53.310Z,84.68
2019-01-13T11:48:58.067Z,84.52
2019-01-13T11:50:03.238Z,84.27
2019-01-13T11:51:08.378Z,84.48
2019-01-13T11:52:13.165Z,84.75
2019-01-13T11:53:18.329Z,84.58
2019-01-13T11:54:23.417Z,84.50
2019-01-13T11:55:28.264Z,84.48
2019-01-13T11:56:32.776Z,84.47
2019-01-13T11:57:37.260Z,84.64
2019-01-13T11:58:42.022Z,84.37
2019-01-13T11:59:46.816Z,84.36
2019-01-13T12:00:51.992Z,84.46
2019-01-13T12:01:57.220Z,84.44
2019-01-13T12:03:06.542Z,84.49
2019-01-13T12:04:08.566Z,84.47
2019-01-13T12:05:13.134Z,84.50
2019-01-13T12:06:17.615Z,84.35
2019-01-13T12:07:22.826Z,84.32
2019-01-13T12:08:28.122Z,84.70
2019-01-13T12:09:32.884Z,84.58
2019-01-13T12:10:37.729Z,84.42
2019-01-13T12:11:42.563Z,84.60
2019-01-13T12:12:47.084Z,84.36
2019-01-13T12:13:52.135Z,84.24
2019-01-13T12:14:57.202Z,84.07
2019-01-13T12:16:01.960Z,84.15
2019-01-13T12:17:07.104Z,84.19
2019-01-13T12:18:11.884Z,84.20
2019-01-13T12:19:16.669Z,84.00
2019-01-13T12:20:23.095Z,84.27
2019-01-13T12:21:28.186Z,83.94
2019-01-13T12:22:32.970Z,83.92
2019-01-13T12:23:37.853Z,83.89
2019-01-13T12:24:42.933Z,83.91
2019-01-13T12:25:52.536Z,83.78
2019-01-13T12:26:54.554Z,83.79
2019-01-13T12:27:59.772Z,83.88
2019-01-13T12:29:04.261Z,83.69
2019-01-13T12:30:11.479Z,83.76
2019-01-13T12:31:16.375Z,84.35
2019-01-13T12:32:21.299Z,84.63
2019-01-13T12:33:26.481Z,84.05
2019-01-13T12:34:30.968Z,83.85
2019-01-13T12:35:36.255Z,83.84
2019-01-13T12:36:41.616Z,84.02
2019-01-13T12:37:46.365Z,84.01
2019-01-13T12:38:51.165Z,84.25
2019-01-13T12:39:56.079Z,84.23
2019-01-13T12:41:01.489Z,84.08
2019-01-13T12:42:06.893Z,84.02
2019-01-13T12:43:11.696Z,84.29
2019-01-13T12:44:16.443Z,84.09
2019-01-13T12:45:22.271Z,84.16
2019-01-13T12:46:27.407Z,84.11
2019-01-13T12:47:31.881Z,84.24
2019-01-13T12:48:36.727Z,84.33
2019-01-13T12:49:41.841Z,84.11
2019-01-13T12:50:47.530Z,84.08
2019-01-13T12:51:52.796Z,84.28
2019-01-13T12:52:57.566Z,84.25
2019-01-13T12:54:03.054Z,84.45
2019-01-13T12:55:08.200Z,84.51
2019-01-13T12:56:12.967Z,84.51
2019-01-13T12:57:17.755Z,84.47
2019-01-13T12:58:22.861Z,84.46
2019-01-13T12:59:27.643Z,84.50
2019-01-13T13:00:32.461Z,84.52
2019-01-13T13:01:37.596Z,84.47
2019-01-13T13:02:42.731Z,84.37
2019-01-13T13:03:47.641Z,84.43
2019-01-13T13:04:52.774Z,84.55
2019-01-13T13:05:57.852Z,84.55
2019-01-13T13:07:02.997Z,84.53
2019-01-13T13:08:08.870Z,84.50
2019-01-13T13:09:13.809Z,84.70
2019-01-13T13:10:31.538Z,84.75
2019-01-13T13:11:36.642Z,84.76
2019-01-13T13:12:41.155Z,84.85
2019-01-13T13:13:46.037Z,84.78
2019-01-13T13:14:50.841Z,84.66
2019-01-13T13:15:55.776Z,84.61
2019-01-13T13:17:00.590Z,84.60
2019-01-13T13:18:05.557Z,84.78
2019-01-13T13:19:10.341Z,84.92
2019-01-13T13:20:15.480Z,84.77
2019-01-13T13:21:20.257Z,84.85
2019-01-13T13:22:25.074Z,84.85
2019-01-13T13:23:30.180Z,84.92
2019-01-13T13:24:34.960Z,84.90
2019-01-13T13:25:39.766Z,85.10
2019-01-13T13:26:44.574Z,85.13
2019-01-13T13:27:50.075Z,85.18
2019-01-13T13:28:54.898Z,85.15
2019-01-13T13:29:59.655Z,85.09
2019-01-13T13:31:04.479Z,85.11
2019-01-13T13:32:09.613Z,85.01
2019-01-13T13:33:15.043Z,84.88
2019-01-13T13:34:19.976Z,85.03
2019-01-13T13:35:24.450Z,85.08
2019-01-13T13:36:29.282Z,85.02
2019-01-13T13:37:34.056Z,85.08
2019-01-13T13:38:41.525Z,85.04
2019-01-13T13:39:46.285Z,85.19
2019-01-13T13:40:51.085Z,85.17
2019-01-13T13:41:55.600Z,85.23
2019-01-13T13:43:00.418Z,85.21
2019-01-13T13:44:05.172Z,85.07
2019-01-13T13:45:10.247Z,85.24
2019-01-13T13:46:15.205Z,85.20
2019-01-13T13:47:20.347Z,85.20
2019-01-13T13:48:25.128Z,85.12
2019-01-13T13:49:29.624Z,85.30
2019-01-13T13:50:34.382Z,85.24
2019-01-13T13:51:39.534Z,85.18
2019-01-13T13:52:44.017Z,85.12
2019-01-13T13:53:49.187Z,85.15
2019-01-13T13:54:54.294Z,85.21
2019-01-13T13:55:59.097Z,85.15
2019-01-13T13:57:03.596Z,84.99
2019-01-13T13:58:08.330Z,84.99
2019-01-13T13:59:12.820Z,85.03
2019-01-13T14:00:37.650Z,84.99